sensor_id;sensor_type;location;lat;lon;timestamp;pressure;altitude;pressure_sealevel;temperature;humidity
61814;BME280;57055;-35.296;149.168;2023-01-31T00:01:41;94288.89;;;21.83;52.15
61814;BME280;57055;-35.296;149.168;2023-01-31T00:04:12;94289.91;;;21.57;51.79
61814;BME280;57055;-35.296;149.168;2023-01-31T00:06:42;94284.32;;;21.84;51.94
61814;BME280;57055;-35.296;149.168;2023-01-31T00:09:12;94287.23;;;21.87;51.44
61814;BME280;57055;-35.296;149.168;2023-01-31T00:11:41;94280.01;;;21.84;51.67
61814;BME280;57055;-35.296;149.168;2023-01-31T00:14:14;94274.47;;;22.02;52.07
61814;BME280;57055;-35.296;149.168;2023-01-31T00:16:45;94273.91;;;22.10;51.05
61814;BME280;57055;-35.296;149.168;2023-01-31T00:19:14;94268.44;;;21.81;50.63
61814;BME280;57055;-35.296;149.168;2023-01-31T00:21:43;94262.12;;;22.08;49.53
61814;BME280;57055;-35.296;149.168;2023-01-31T00:24:13;94261.22;;;22.12;50.60
61814;BME280;57055;-35.296;149.168;2023-01-31T00:26:43;94262.15;;;22.24;50.59
61814;BME280;57055;-35.296;149.168;2023-01-31T00:29:12;94259.69;;;22.43;51.05
61814;BME280;57055;-35.296;149.168;2023-01-31T00:31:41;94253.78;;;22.22;50.73
61814;BME280;57055;-35.296;149.168;2023-01-31T00:34:11;94249.49;;;22.37;50.58
61814;BME280;57055;-35.296;149.168;2023-01-31T00:36:40;94244.83;;;22.51;50.14
61814;BME280;57055;-35.296;149.168;2023-01-31T00:39:09;94243.73;;;22.53;50.92
61814;BME280;57055;-35.296;149.168;2023-01-31T00:41:38;94243.98;;;22.35;49.32
61814;BME280;57055;-35.296;149.168;2023-01-31T00:44:07;94239.04;;;22.65;49.83
61814;BME280;57055;-35.296;149.168;2023-01-31T00:46:37;94235.79;;;22.34;50.10
61814;BME280;57055;-35.296;149.168;2023-01-31T00:49:06;94228.95;;;22.55;49.88
61814;BME280;57055;-35.296;149.168;2023-01-31T00:51:35;94222.18;;;22.69;49.44
61814;BME280;57055;-35.296;149.168;2023-01-31T00:54:05;94218.12;;;22.98;49.28
61814;BME280;57055;-35.296;149.168;2023-01-31T00:56:35;94214.13;;;22.83;50.23
61814;BME280;57055;-35.296;149.168;2023-01-31T00:59:05;94211.16;;;23.21;49.42
61814;BME280;57055;-35.296;149.168;2023-01-31T01:01:36;94208.67;;;23.14;50.08
61814;BME280;57055;-35.296;149.168;2023-01-31T01:04:09;94202.90;;;23.19;48.71
61814;BME280;57055;-35.296;149.168;2023-01-31T01:06:39;94201.26;;;23.21;49.03
61814;BME280;57055;-35.296;149.168;2023-01-31T01:09:08;94203.43;;;23.17;47.35
61814;BME280;57055;-35.296;149.168;2023-01-31T01:11:37;94202.02;;;22.92;47.68
61814;BME280;57055;-35.296;149.168;2023-01-31T01:14:06;94199.98;;;22.93;47.91
61814;BME280;57055;-35.296;149.168;2023-01-31T01:16:37;94195.95;;;22.88;48.33
61814;BME280;57055;-35.296;149.168;2023-01-31T01:19:10;94193.08;;;23.20;49.08
61814;BME280;57055;-35.296;149.168;2023-01-31T01:21:39;94193.30;;;23.03;48.65
61814;BME280;57055;-35.296;149.168;2023-01-31T01:24:14;94192.62;;;23.26;48.04
61814;BME280;57055;-35.296;149.168;2023-01-31T01:26:44;94192.01;;;23.12;47.33
61814;BME280;57055;-35.296;149.168;2023-01-31T01:29:12;94193.65;;;22.80;47.06
61814;BME280;57055;-35.296;149.168;2023-01-31T01:31:42;94187.63;;;23.28;46.89
61814;BME280;57055;-35.296;149.168;2023-01-31T01:34:13;94186.28;;;22.76;47.50
61814;BME280;57055;-35.296;149.168;2023-01-31T01:36:42;94182.90;;;22.86;47.37
61814;BME280;57055;-35.296;149.168;2023-01-31T01:39:12;94182.31;;;23.04;48.07
61814;BME280;57055;-35.296;149.168;2023-01-31T01:41:41;94178.40;;;23.39;47.64
61814;BME280;57055;-35.296;149.168;2023-01-31T01:44:52;94178.10;;;23.55;47.47
61814;BME280;57055;-35.296;149.168;2023-01-31T01:47:28;94174.19;;;23.58;46.76
61814;BME280;57055;-35.296;149.168;2023-01-31T01:50:05;94168.05;;;23.74;46.44
61814;BME280;57055;-35.296;149.168;2023-01-31T01:52:41;94169.65;;;23.42;47.33
61814;BME280;57055;-35.296;149.168;2023-01-31T01:55:18;94168.02;;;23.76;46.77
61814;BME280;57055;-35.296;149.168;2023-01-31T01:57:54;94165.33;;;23.59;46.17
61814;BME280;57055;-35.296;149.168;2023-01-31T02:00:26;94159.53;;;23.71;45.34
61814;BME280;57055;-35.296;149.168;2023-01-31T02:02:57;94155.27;;;23.62;45.55
61814;BME280;57055;-35.296;149.168;2023-01-31T02:05:30;94151.02;;;23.56;46.43
61814;BME280;57055;-35.296;149.168;2023-01-31T02:08:00;94145.92;;;23.49;45.77
61814;BME280;57055;-35.296;149.168;2023-01-31T02:10:33;94142.22;;;23.47;46.33
61814;BME280;57055;-35.296;149.168;2023-01-31T02:13:05;94138.02;;;23.73;45.84
61814;BME280;57055;-35.296;149.168;2023-01-31T02:15:35;94135.08;;;23.92;45.31
61814;BME280;57055;-35.296;149.168;2023-01-31T02:18:05;94132.92;;;23.85;45.89
61814;BME280;57055;-35.296;149.168;2023-01-31T02:21:09;94134.26;;;23.84;46.92
61814;BME280;57055;-35.296;149.168;2023-01-31T02:26:23;94126.15;;;24.14;44.91
61814;BME280;57055;-35.296;149.168;2023-01-31T02:29:20;94117.69;;;23.88;44.99
61814;BME280;57055;-35.296;149.168;2023-01-31T02:34:09;94112.97;;;23.87;45.16
61814;BME280;57055;-35.296;149.168;2023-01-31T02:36:53;94116.05;;;24.19;44.72
61814;BME280;57055;-35.296;149.168;2023-01-31T02:39:31;94106.53;;;23.76;44.53
61814;BME280;57055;-35.296;149.168;2023-01-31T02:42:17;94104.48;;;24.09;44.80
61814;BME280;57055;-35.296;149.168;2023-01-31T02:44:55;94093.09;;;24.30;44.74
61814;BME280;57055;-35.296;149.168;2023-01-31T02:47:40;94094.70;;;24.29;44.41
61814;BME280;57055;-35.296;149.168;2023-01-31T02:50:18;94091.58;;;24.28;43.04
61814;BME280;57055;-35.296;149.168;2023-01-31T02:52:57;94092.34;;;24.61;43.68
61814;BME280;57055;-35.296;149.168;2023-01-31T02:55:29;94083.76;;;24.81;43.44
61814;BME280;57055;-35.296;149.168;2023-01-31T02:58:02;94083.56;;;24.77;43.37
61814;BME280;57055;-35.296;149.168;2023-01-31T03:00:37;94078.79;;;24.72;43.47
61814;BME280;57055;-35.296;149.168;2023-01-31T03:03:17;94079.04;;;25.08;42.70
61814;BME280;57055;-35.296;149.168;2023-01-31T03:07:39;94069.69;;;24.75;43.37
61814;BME280;57055;-35.296;149.168;2023-01-31T03:10:22;94066.96;;;24.57;44.13
61814;BME280;57055;-35.296;149.168;2023-01-31T03:13:12;94069.91;;;24.24;43.91
61814;BME280;57055;-35.296;149.168;2023-01-31T03:16:00;94063.53;;;24.34;43.16
61814;BME280;57055;-35.296;149.168;2023-01-31T03:18:37;94056.66;;;24.18;43.35
61814;BME280;57055;-35.296;149.168;2023-01-31T03:21:15;94059.64;;;24.12;44.33
61814;BME280;57055;-35.296;149.168;2023-01-31T03:23:49;94052.78;;;24.03;44.27
61814;BME280;57055;-35.296;149.168;2023-01-31T03:26:20;94053.01;;;24.12;44.13
61814;BME280;57055;-35.296;149.168;2023-01-31T03:28:53;94045.07;;;24.28;44.16
61814;BME280;57055;-35.296;149.168;2023-01-31T03:31:27;94042.82;;;24.62;43.82
61814;BME280;57055;-35.296;149.168;2023-01-31T03:34:03;94042.13;;;25.08;43.59
61814;BME280;57055;-35.296;149.168;2023-01-31T03:36:38;94040.67;;;24.74;44.14
61814;BME280;57055;-35.296;149.168;2023-01-31T03:39:18;94033.70;;;24.75;43.69
61814;BME280;57055;-35.296;149.168;2023-01-31T03:41:57;94020.45;;;24.34;44.69
61814;BME280;57055;-35.296;149.168;2023-01-31T03:44:38;94019.65;;;24.41;45.22
61814;BME280;57055;-35.296;149.168;2023-01-31T03:47:15;94020.50;;;24.39;45.19
61814;BME280;57055;-35.296;149.168;2023-01-31T03:49:49;94022.86;;;24.75;43.86
61814;BME280;57055;-35.296;149.168;2023-01-31T03:52:24;94023.85;;;24.60;43.71
61814;BME280;57055;-35.296;149.168;2023-01-31T03:55:01;94019.66;;;24.27;44.14
61814;BME280;57055;-35.296;149.168;2023-01-31T03:57:36;94022.29;;;24.22;43.89
61814;BME280;57055;-35.296;149.168;2023-01-31T04:00:11;94020.01;;;23.97;44.01
61814;BME280;57055;-35.296;149.168;2023-01-31T04:02:41;94021.08;;;24.20;43.90
61814;BME280;57055;-35.296;149.168;2023-01-31T04:05:13;94017.38;;;24.02;44.61
61814;BME280;57055;-35.296;149.168;2023-01-31T04:07:43;94020.15;;;24.15;44.22
61814;BME280;57055;-35.296;149.168;2023-01-31T04:10:15;94014.66;;;24.41;44.41
61814;BME280;57055;-35.296;149.168;2023-01-31T04:12:45;94009.18;;;24.06;44.56
61814;BME280;57055;-35.296;149.168;2023-01-31T04:15:14;94006.19;;;24.08;44.34
61814;BME280;57055;-35.296;149.168;2023-01-31T04:17:43;94001.51;;;24.28;45.03
61814;BME280;57055;-35.296;149.168;2023-01-31T04:20:13;94003.74;;;24.11;44.74
61814;BME280;57055;-35.296;149.168;2023-01-31T04:22:42;94000.64;;;23.97;44.44
61814;BME280;57055;-35.296;149.168;2023-01-31T04:25:11;93995.73;;;24.45;44.01
61814;BME280;57055;-35.296;149.168;2023-01-31T04:27:40;94002.02;;;24.64;43.72
61814;BME280;57055;-35.296;149.168;2023-01-31T04:30:10;94003.55;;;24.24;43.68
61814;BME280;57055;-35.296;149.168;2023-01-31T04:32:40;93999.99;;;24.34;43.11
61814;BME280;57055;-35.296;149.168;2023-01-31T04:35:09;94000.44;;;24.21;43.17
61814;BME280;57055;-35.296;149.168;2023-01-31T04:37:40;94000.04;;;24.31;43.93
61814;BME280;57055;-35.296;149.168;2023-01-31T04:40:10;93999.72;;;24.37;43.47
61814;BME280;57055;-35.296;149.168;2023-01-31T04:42:39;93997.94;;;24.15;43.33
61814;BME280;57055;-35.296;149.168;2023-01-31T04:45:09;93989.96;;;24.41;43.77
61814;BME280;57055;-35.296;149.168;2023-01-31T04:47:39;93989.51;;;24.11;43.68
61814;BME280;57055;-35.296;149.168;2023-01-31T04:50:09;93988.09;;;24.12;44.35
61814;BME280;57055;-35.296;149.168;2023-01-31T04:52:38;93980.37;;;24.39;44.50
61814;BME280;57055;-35.296;149.168;2023-01-31T04:55:08;93981.35;;;24.10;43.40
61814;BME280;57055;-35.296;149.168;2023-01-31T04:57:37;93978.68;;;24.06;44.06
61814;BME280;57055;-35.296;149.168;2023-01-31T05:00:08;93971.99;;;24.54;44.00
61814;BME280;57055;-35.296;149.168;2023-01-31T05:02:38;93974.53;;;24.19;43.76
61814;BME280;57055;-35.296;149.168;2023-01-31T05:05:08;93982.15;;;24.57;43.14
61814;BME280;57055;-35.296;149.168;2023-01-31T05:07:38;93979.26;;;24.54;42.45
61814;BME280;57055;-35.296;149.168;2023-01-31T05:10:08;93974.62;;;24.77;42.74
61814;BME280;57055;-35.296;149.168;2023-01-31T05:12:38;93974.83;;;25.03;43.02
61814;BME280;57055;-35.296;149.168;2023-01-31T05:15:08;93966.53;;;24.82;41.21
61814;BME280;57055;-35.296;149.168;2023-01-31T05:17:37;93955.87;;;25.17;41.40
61814;BME280;57055;-35.296;149.168;2023-01-31T05:20:07;93952.79;;;24.99;41.66
61814;BME280;57055;-35.296;149.168;2023-01-31T05:22:36;93945.44;;;25.39;41.83
61814;BME280;57055;-35.296;149.168;2023-01-31T05:25:06;93940.11;;;25.32;41.94
61814;BME280;57055;-35.296;149.168;2023-01-31T05:27:34;93935.18;;;25.00;40.43
61814;BME280;57055;-35.296;149.168;2023-01-31T05:30:04;93940.38;;;24.93;40.42
61814;BME280;57055;-35.296;149.168;2023-01-31T05:32:35;93938.34;;;25.11;41.46
61814;BME280;57055;-35.296;149.168;2023-01-31T05:35:05;93937.36;;;24.94;41.47
61814;BME280;57055;-35.296;149.168;2023-01-31T05:37:34;93943.49;;;25.15;41.31
61814;BME280;57055;-35.296;149.168;2023-01-31T05:40:04;93932.36;;;25.40;41.32
61814;BME280;57055;-35.296;149.168;2023-01-31T05:42:33;93925.31;;;25.72;41.09
61814;BME280;57055;-35.296;149.168;2023-01-31T05:45:03;93931.13;;;25.34;40.46
61814;BME280;57055;-35.296;149.168;2023-01-31T05:47:32;93932.02;;;25.25;40.88
61814;BME280;57055;-35.296;149.168;2023-01-31T05:50:02;93928.60;;;25.31;40.99
61814;BME280;57055;-35.296;149.168;2023-01-31T05:52:32;93919.46;;;25.15;41.24
61814;BME280;57055;-35.296;149.168;2023-01-31T05:55:01;93910.96;;;25.30;41.14
61814;BME280;57055;-35.296;149.168;2023-01-31T05:57:30;93908.01;;;25.62;40.24
61814;BME280;57055;-35.296;149.168;2023-01-31T05:59:59;93910.12;;;25.29;40.54
61814;BME280;57055;-35.296;149.168;2023-01-31T06:02:29;93906.86;;;25.07;40.64
61814;BME280;57055;-35.296;149.168;2023-01-31T06:04:58;93905.05;;;25.13;40.51
61814;BME280;57055;-35.296;149.168;2023-01-31T06:07:27;93906.26;;;25.00;41.12
61814;BME280;57055;-35.296;149.168;2023-01-31T06:09:56;93903.26;;;25.11;41.74
61814;BME280;57055;-35.296;149.168;2023-01-31T06:12:25;93895.24;;;24.71;42.18
61814;BME280;57055;-35.296;149.168;2023-01-31T06:14:55;93890.41;;;24.96;42.55
61814;BME280;57055;-35.296;149.168;2023-01-31T06:17:24;93886.75;;;24.74;42.75
61814;BME280;57055;-35.296;149.168;2023-01-31T06:19:53;93885.60;;;24.71;43.00
61814;BME280;57055;-35.296;149.168;2023-01-31T06:22:22;93886.07;;;24.86;42.78
61814;BME280;57055;-35.296;149.168;2023-01-31T06:24:51;93881.52;;;24.86;42.85
61814;BME280;57055;-35.296;149.168;2023-01-31T06:27:20;93881.56;;;24.86;43.10
61814;BME280;57055;-35.296;149.168;2023-01-31T06:29:50;93886.41;;;24.77;42.86
61814;BME280;57055;-35.296;149.168;2023-01-31T06:32:19;93889.68;;;24.74;45.80
61814;BME280;57055;-35.296;149.168;2023-01-31T06:34:47;93882.24;;;24.67;44.33
61814;BME280;57055;-35.296;149.168;2023-01-31T06:37:16;93883.43;;;24.59;48.06
61814;BME280;57055;-35.296;149.168;2023-01-31T06:39:45;93884.33;;;24.54;47.60
61814;BME280;57055;-35.296;149.168;2023-01-31T06:42:14;93883.06;;;24.39;47.35
61814;BME280;57055;-35.296;149.168;2023-01-31T06:44:44;93872.82;;;24.72;48.97
61814;BME280;57055;-35.296;149.168;2023-01-31T06:47:13;93874.80;;;24.80;46.27
61814;BME280;57055;-35.296;149.168;2023-01-31T06:49:42;93876.40;;;24.59;46.44
61814;BME280;57055;-35.296;149.168;2023-01-31T06:52:11;93876.88;;;24.70;50.10
61814;BME280;57055;-35.296;149.168;2023-01-31T06:54:40;93877.72;;;24.57;47.69
61814;BME280;57055;-35.296;149.168;2023-01-31T06:57:09;93874.76;;;24.45;45.96
61814;BME280;57055;-35.296;149.168;2023-01-31T06:59:39;93873.05;;;24.35;48.08
61814;BME280;57055;-35.296;149.168;2023-01-31T07:02:09;93868.91;;;24.28;48.93
61814;BME280;57055;-35.296;149.168;2023-01-31T07:04:38;93873.12;;;24.21;49.31
61814;BME280;57055;-35.296;149.168;2023-01-31T07:07:07;93871.53;;;24.39;46.96
61814;BME280;57055;-35.296;149.168;2023-01-31T07:09:37;93869.64;;;24.50;48.24
61814;BME280;57055;-35.296;149.168;2023-01-31T07:12:07;93868.52;;;24.01;45.77
61814;BME280;57055;-35.296;149.168;2023-01-31T07:14:36;93871.96;;;24.21;46.68
61814;BME280;57055;-35.296;149.168;2023-01-31T07:17:06;93876.35;;;24.27;46.91
61814;BME280;57055;-35.296;149.168;2023-01-31T07:19:35;93874.94;;;23.95;48.18
61814;BME280;57055;-35.296;149.168;2023-01-31T07:22:04;93876.72;;;24.16;47.58
61814;BME280;57055;-35.296;149.168;2023-01-31T07:24:34;93888.94;;;24.10;49.48
61814;BME280;57055;-35.296;149.168;2023-01-31T07:27:03;93896.69;;;23.91;47.48
61814;BME280;57055;-35.296;149.168;2023-01-31T07:29:32;93898.83;;;23.86;48.45
61814;BME280;57055;-35.296;149.168;2023-01-31T07:32:01;93898.48;;;23.74;48.83
61814;BME280;57055;-35.296;149.168;2023-01-31T07:34:31;93894.78;;;23.98;48.37
61814;BME280;57055;-35.296;149.168;2023-01-31T07:37:00;93898.53;;;23.96;49.83
61814;BME280;57055;-35.296;149.168;2023-01-31T07:39:29;93900.22;;;23.95;51.56
61814;BME280;57055;-35.296;149.168;2023-01-31T07:41:58;93898.49;;;23.87;50.34
61814;BME280;57055;-35.296;149.168;2023-01-31T07:44:27;93894.52;;;23.59;48.85
61814;BME280;57055;-35.296;149.168;2023-01-31T07:46:57;93894.08;;;23.66;49.76
61814;BME280;57055;-35.296;149.168;2023-01-31T07:49:26;93894.66;;;23.72;50.32
61814;BME280;57055;-35.296;149.168;2023-01-31T07:51:55;93901.60;;;23.64;53.13
61814;BME280;57055;-35.296;149.168;2023-01-31T07:54:24;93906.81;;;23.28;52.24
61814;BME280;57055;-35.296;149.168;2023-01-31T07:56:53;93906.36;;;23.45;52.46
61814;BME280;57055;-35.296;149.168;2023-01-31T07:59:22;93912.64;;;23.89;50.94
61814;BME280;57055;-35.296;149.168;2023-01-31T08:01:51;93916.07;;;23.43;50.64
61814;BME280;57055;-35.296;149.168;2023-01-31T08:04:20;93925.58;;;23.29;51.40
61814;BME280;57055;-35.296;149.168;2023-01-31T08:06:52;93931.00;;;23.15;51.53
61814;BME280;57055;-35.296;149.168;2023-01-31T08:09:22;93929.24;;;23.04;51.72
61814;BME280;57055;-35.296;149.168;2023-01-31T08:11:51;93932.03;;;22.95;51.07
61814;BME280;57055;-35.296;149.168;2023-01-31T08:14:20;93937.74;;;22.80;51.46
61814;BME280;57055;-35.296;149.168;2023-01-31T08:16:49;93940.73;;;22.91;51.13
61814;BME280;57055;-35.296;149.168;2023-01-31T08:19:19;93935.52;;;22.62;51.24
61814;BME280;57055;-35.296;149.168;2023-01-31T08:21:48;93931.55;;;22.58;51.08
61814;BME280;57055;-35.296;149.168;2023-01-31T08:24:17;93945.05;;;22.74;51.41
61814;BME280;57055;-35.296;149.168;2023-01-31T08:26:47;93949.21;;;22.69;51.18
61814;BME280;57055;-35.296;149.168;2023-01-31T08:29:16;93950.70;;;22.84;51.28
61814;BME280;57055;-35.296;149.168;2023-01-31T08:31:45;93950.90;;;22.54;51.78
61814;BME280;57055;-35.296;149.168;2023-01-31T08:34:14;93953.00;;;22.67;51.92
61814;BME280;57055;-35.296;149.168;2023-01-31T08:36:44;93957.59;;;22.46;51.92
61814;BME280;57055;-35.296;149.168;2023-01-31T08:39:12;93962.09;;;22.35;52.19
61814;BME280;57055;-35.296;149.168;2023-01-31T08:41:41;93962.66;;;22.57;51.59
61814;BME280;57055;-35.296;149.168;2023-01-31T08:44:12;93964.07;;;22.53;51.49
61814;BME280;57055;-35.296;149.168;2023-01-31T08:46:41;93976.77;;;22.39;52.12
61814;BME280;57055;-35.296;149.168;2023-01-31T08:49:10;93985.17;;;22.05;52.74
61814;BME280;57055;-35.296;149.168;2023-01-31T08:51:39;93996.12;;;22.21;53.33
61814;BME280;57055;-35.296;149.168;2023-01-31T08:54:07;94003.49;;;22.10;53.52
61814;BME280;57055;-35.296;149.168;2023-01-31T08:56:36;94011.15;;;22.05;54.16
61814;BME280;57055;-35.296;149.168;2023-01-31T08:59:05;94010.90;;;22.07;54.16
61814;BME280;57055;-35.296;149.168;2023-01-31T09:01:34;94018.36;;;22.05;54.30
61814;BME280;57055;-35.296;149.168;2023-01-31T09:04:04;94028.48;;;21.95;54.63
61814;BME280;57055;-35.296;149.168;2023-01-31T09:06:33;94028.01;;;22.14;54.73
61814;BME280;57055;-35.296;149.168;2023-01-31T09:09:02;94031.46;;;21.88;55.06
61814;BME280;57055;-35.296;149.168;2023-01-31T09:11:31;94031.76;;;21.79;54.56
61814;BME280;57055;-35.296;149.168;2023-01-31T09:14:01;94027.47;;;21.83;55.35
61814;BME280;57055;-35.296;149.168;2023-01-31T09:16:30;94023.50;;;21.65;55.20
61814;BME280;57055;-35.296;149.168;2023-01-31T09:19:00;94017.27;;;21.62;55.04
61814;BME280;57055;-35.296;149.168;2023-01-31T09:21:30;94013.90;;;21.72;55.96
61814;BME280;57055;-35.296;149.168;2023-01-31T09:23:59;94018.61;;;21.65;55.51
61814;BME280;57055;-35.296;149.168;2023-01-31T09:26:28;94028.79;;;21.53;55.89
61814;BME280;57055;-35.296;149.168;2023-01-31T09:28:58;94029.70;;;21.43;56.29
61814;BME280;57055;-35.296;149.168;2023-01-31T09:31:27;94030.15;;;21.44;55.88
61814;BME280;57055;-35.296;149.168;2023-01-31T09:33:56;94033.35;;;21.64;56.21
61814;BME280;57055;-35.296;149.168;2023-01-31T09:36:25;94039.69;;;21.63;55.73
61814;BME280;57055;-35.296;149.168;2023-01-31T09:38:55;94038.79;;;21.29;55.89
61814;BME280;57055;-35.296;149.168;2023-01-31T09:41:28;94045.91;;;21.26;56.22
61814;BME280;57055;-35.296;149.168;2023-01-31T09:44:02;94058.07;;;21.45;56.26
61814;BME280;57055;-35.296;149.168;2023-01-31T09:46:37;94064.35;;;21.22;56.07
61814;BME280;57055;-35.296;149.168;2023-01-31T09:49:13;94060.82;;;21.18;56.24
61814;BME280;57055;-35.296;149.168;2023-01-31T09:51:44;94061.32;;;21.20;56.00
61814;BME280;57055;-35.296;149.168;2023-01-31T09:54:20;94067.78;;;21.27;56.48
61814;BME280;57055;-35.296;149.168;2023-01-31T09:57:00;94071.95;;;21.27;56.46
61814;BME280;57055;-35.296;149.168;2023-01-31T09:59:41;94071.57;;;21.19;56.47
61814;BME280;57055;-35.296;149.168;2023-01-31T10:02:34;94085.26;;;21.22;56.33
61814;BME280;57055;-35.296;149.168;2023-01-31T10:05:18;94083.99;;;21.12;56.56
61814;BME280;57055;-35.296;149.168;2023-01-31T10:07:59;94076.39;;;20.67;56.80
61814;BME280;57055;-35.296;149.168;2023-01-31T10:10:37;94077.43;;;20.72;57.29
61814;BME280;57055;-35.296;149.168;2023-01-31T10:13:15;94083.26;;;20.74;57.51
61814;BME280;57055;-35.296;149.168;2023-01-31T10:15:48;94090.17;;;20.99;57.82
61814;BME280;57055;-35.296;149.168;2023-01-31T10:18:23;94096.28;;;20.98;57.51
61814;BME280;57055;-35.296;149.168;2023-01-31T10:20:55;94104.89;;;20.71;57.82
61814;BME280;57055;-35.296;149.168;2023-01-31T10:23:29;94115.65;;;20.90;57.25
61814;BME280;57055;-35.296;149.168;2023-01-31T10:26:02;94120.16;;;20.94;57.90
61814;BME280;57055;-35.296;149.168;2023-01-31T10:28:38;94120.86;;;20.92;58.25
61814;BME280;57055;-35.296;149.168;2023-01-31T10:31:15;94123.05;;;20.81;58.78
61814;BME280;57055;-35.296;149.168;2023-01-31T10:33:50;94125.49;;;20.75;58.81
61814;BME280;57055;-35.296;149.168;2023-01-31T10:36:25;94122.53;;;20.68;58.97
61814;BME280;57055;-35.296;149.168;2023-01-31T10:39:01;94126.02;;;21.07;58.77
61814;BME280;57055;-35.296;149.168;2023-01-31T10:41:42;94129.62;;;21.03;58.39
61814;BME280;57055;-35.296;149.168;2023-01-31T10:44:22;94142.89;;;20.69;58.41
61814;BME280;57055;-35.296;149.168;2023-01-31T10:46:52;94147.33;;;20.43;58.55
61814;BME280;57055;-35.296;149.168;2023-01-31T10:49:25;94144.99;;;20.31;58.35
61814;BME280;57055;-35.296;149.168;2023-01-31T10:52:09;94152.21;;;20.53;58.36
61814;BME280;57055;-35.296;149.168;2023-01-31T10:54:48;94155.35;;;20.29;58.35
61814;BME280;57055;-35.296;149.168;2023-01-31T10:57:21;94156.57;;;20.32;58.27
61814;BME280;57055;-35.296;149.168;2023-01-31T10:59:51;94161.00;;;20.49;58.75
61814;BME280;57055;-35.296;149.168;2023-01-31T11:02:23;94160.44;;;20.51;59.10
61814;BME280;57055;-35.296;149.168;2023-01-31T11:04:53;94154.61;;;20.59;59.44
61814;BME280;57055;-35.296;149.168;2023-01-31T11:07:23;94152.43;;;20.02;59.53
61814;BME280;57055;-35.296;149.168;2023-01-31T11:09:54;94152.77;;;20.45;59.82
61814;BME280;57055;-35.296;149.168;2023-01-31T11:12:41;94155.79;;;20.42;59.50
61814;BME280;57055;-35.296;149.168;2023-01-31T11:15:17;94159.59;;;20.01;59.54
61814;BME280;57055;-35.296;149.168;2023-01-31T11:17:47;94158.12;;;20.22;59.54
61814;BME280;57055;-35.296;149.168;2023-01-31T11:20:23;94157.72;;;20.44;60.05
61814;BME280;57055;-35.296;149.168;2023-01-31T11:22:53;94161.84;;;20.14;60.02
61814;BME280;57055;-35.296;149.168;2023-01-31T11:25:25;94163.23;;;19.93;59.46
61814;BME280;57055;-35.296;149.168;2023-01-31T11:27:59;94159.50;;;20.22;60.05
61814;BME280;57055;-35.296;149.168;2023-01-31T11:30:31;94155.80;;;20.13;59.85
61814;BME280;57055;-35.296;149.168;2023-01-31T11:33:03;94158.04;;;20.04;60.03
61814;BME280;57055;-35.296;149.168;2023-01-31T11:35:33;94158.77;;;19.99;60.11
61814;BME280;57055;-35.296;149.168;2023-01-31T11:38:17;94156.07;;;20.02;60.15
61814;BME280;57055;-35.296;149.168;2023-01-31T11:40:46;94154.98;;;19.93;60.80
61814;BME280;57055;-35.296;149.168;2023-01-31T11:43:25;94151.30;;;19.86;60.92
61814;BME280;57055;-35.296;149.168;2023-01-31T11:45:57;94151.77;;;19.73;60.41
61814;BME280;57055;-35.296;149.168;2023-01-31T11:48:30;94148.52;;;19.69;60.57
61814;BME280;57055;-35.296;149.168;2023-01-31T11:51:01;94146.33;;;19.67;60.78
61814;BME280;57055;-35.296;149.168;2023-01-31T11:53:35;94144.07;;;19.64;60.93
61814;BME280;57055;-35.296;149.168;2023-01-31T11:56:12;94141.57;;;19.61;60.79
61814;BME280;57055;-35.296;149.168;2023-01-31T11:58:43;94139.02;;;19.38;61.18
61814;BME280;57055;-35.296;149.168;2023-01-31T12:01:18;94140.30;;;19.76;61.01
61814;BME280;57055;-35.296;149.168;2023-01-31T12:03:50;94136.13;;;19.45;60.95
61814;BME280;57055;-35.296;149.168;2023-01-31T12:06:27;94139.15;;;19.52;60.79
61814;BME280;57055;-35.296;149.168;2023-01-31T12:08:58;94146.27;;;19.52;61.01
61814;BME280;57055;-35.296;149.168;2023-01-31T12:11:29;94146.77;;;19.43;61.19
61814;BME280;57055;-35.296;149.168;2023-01-31T12:14:08;94145.40;;;19.43;61.35
61814;BME280;57055;-35.296;149.168;2023-01-31T12:16:39;94144.84;;;19.34;61.35
61814;BME280;57055;-35.296;149.168;2023-01-31T12:19:19;94143.92;;;19.59;60.98
61814;BME280;57055;-35.296;149.168;2023-01-31T12:21:59;94142.67;;;19.51;61.18
61814;BME280;57055;-35.296;149.168;2023-01-31T12:24:39;94146.37;;;19.13;61.16
61814;BME280;57055;-35.296;149.168;2023-01-31T12:27:24;94146.04;;;19.48;61.04
61814;BME280;57055;-35.296;149.168;2023-01-31T12:30:12;94143.29;;;19.18;61.03
61814;BME280;57055;-35.296;149.168;2023-01-31T12:32:55;94141.88;;;19.18;61.10
61814;BME280;57055;-35.296;149.168;2023-01-31T12:35:38;94142.80;;;19.18;61.10
61814;BME280;57055;-35.296;149.168;2023-01-31T12:38:20;94138.43;;;19.39;61.30
61814;BME280;57055;-35.296;149.168;2023-01-31T12:40:56;94136.77;;;19.10;61.35
61814;BME280;57055;-35.296;149.168;2023-01-31T12:43:43;94141.33;;;19.27;61.36
61814;BME280;57055;-35.296;149.168;2023-01-31T12:46:22;94145.17;;;18.97;61.72
61814;BME280;57055;-35.296;149.168;2023-01-31T12:49:09;94143.52;;;19.51;61.53
61814;BME280;57055;-35.296;149.168;2023-01-31T12:51:46;94136.88;;;19.29;61.71
61814;BME280;57055;-35.296;149.168;2023-01-31T12:54:31;94132.00;;;19.37;61.55
61814;BME280;57055;-35.296;149.168;2023-01-31T12:57:16;94134.09;;;19.09;61.58
61814;BME280;57055;-35.296;149.168;2023-01-31T12:59:58;94132.53;;;19.34;61.54
61814;BME280;57055;-35.296;149.168;2023-01-31T13:02:39;94130.88;;;19.59;61.49
61814;BME280;57055;-35.296;149.168;2023-01-31T13:05:21;94130.46;;;19.54;61.49